Kezdőlap
METAR-TAF:

METAR-TAF

Repülőterek :

Air Force Base Langebaanweg

Langebaan, Dél-afrikai Köztársaság

földrajzi szélesség: 32-58-08S, földrajzi hosszúság: 018-09-55E, magasság: 33 m

Jelenlegi meteorológiai megfigyelések

A jelentés 1 órával és 27 perccel ezelõtt készült, 02:00 UTC
Délnyugati szél 2 kt
Hőmérséklet 3°C
Páratartalom 93%
Légköri nyomás 1020 hPa

METAR: FALW 230200Z AUTO 22002KT //// // ////// 03/02 Q1020

Idő: 05:27 (03:27 UTC)


TAF: hiányzik

Meteorológiai megfigyelések és előrejelzések több, mint 4000 repülőtéren (METAR és TAF jelentéseket).

A térképen piros és sárga pontok jelzik az elérhető meteorológiai állomásokat.

Mozgassa az egeret a pont fölött, hogy megjelenjen az állomás neve.

Azután kattintson az időjárási megfigyelések és előrejelzések megtekintéséhez.

A térkép megváltoztatása: kattintson a fekete keresztel jelölt zöld gombra ráközelítéshez, a vonallal jelölt zöld gombra távolításhoz, vagy a zöld nyilakra a szomszédos térképek eléréséhez.


METAR-TAF: